createdAt,value
2023-04-09T00:00:37.060Z,9.35
2023-04-09T00:03:24.682Z,9.33
2023-04-09T00:05:52.585Z,9.34
2023-04-09T00:08:20.364Z,9.34
2023-04-09T00:10:47.912Z,9.34
2023-04-09T00:13:18.420Z,9.34
2023-04-09T00:15:51.315Z,9.33
2023-04-09T00:18:18.808Z,9.33
2023-04-09T00:20:49.317Z,9.33
2023-04-09T00:23:19.259Z,9.34
2023-04-09T00:25:46.739Z,9.34
2023-04-09T00:28:14.210Z,9.35
2023-04-09T00:30:44.375Z,9.36
2023-04-09T00:33:11.818Z,9.36
2023-04-09T00:35:39.243Z,9.38
2023-04-09T00:38:06.702Z,9.38
2023-04-09T00:40:34.221Z,9.39
2023-04-09T00:43:02.394Z,9.39
2023-04-09T00:45:30.038Z,9.40
2023-04-09T00:47:57.663Z,9.40
2023-04-09T00:50:25.314Z,9.40
2023-04-09T00:52:52.852Z,9.41
2023-04-09T00:55:22.347Z,9.41
2023-04-09T00:57:49.937Z,9.40
2023-04-09T01:00:17.479Z,9.40
2023-04-09T01:02:45.335Z,9.40
2023-04-09T01:05:13.545Z,9.39
2023-04-09T01:08:12.822Z,9.39
2023-04-09T01:10:51.128Z,9.37
2023-04-09T01:13:22.294Z,9.35
2023-04-09T01:16:00.978Z,9.34
2023-04-09T01:18:28.428Z,9.33
2023-04-09T01:20:55.908Z,9.32
2023-04-09T01:23:43.121Z,9.30
2023-04-09T01:26:19.362Z,9.29
2023-04-09T01:28:52.506Z,9.28
2023-04-09T01:31:25.223Z,9.27
2023-04-09T01:33:52.723Z,9.26
2023-04-09T01:36:21.205Z,9.25
2023-04-09T01:38:51.615Z,9.23
2023-04-09T01:41:22.055Z,9.23
2023-04-09T01:43:51.003Z,9.21
2023-04-09T01:46:20.141Z,9.17
2023-04-09T01:48:49.601Z,9.15
2023-04-09T01:51:20.998Z,9.12
2023-04-09T01:53:49.645Z,9.10
2023-04-09T01:56:17.158Z,9.09
2023-04-09T01:58:44.618Z,9.09
2023-04-09T02:01:33.273Z,9.08
2023-04-09T02:04:04.221Z,9.05
2023-04-09T02:06:41.415Z,9.03
2023-04-09T02:09:10.443Z,9.03
2023-04-09T02:11:41.797Z,9.01
2023-04-09T02:14:11.155Z,9.01
2023-04-09T02:16:40.724Z,9.01
2023-04-09T02:19:08.478Z,8.99
2023-04-09T02:21:35.957Z,8.97
2023-04-09T02:24:03.827Z,8.96
2023-04-09T02:26:31.301Z,8.96
2023-04-09T02:28:58.947Z,8.95
2023-04-09T02:31:26.534Z,8.92
2023-04-09T02:33:54.248Z,8.89
2023-04-09T02:36:21.808Z,8.87
2023-04-09T02:38:49.432Z,8.84
2023-04-09T02:41:17.100Z,8.84
2023-04-09T02:43:44.661Z,8.83
2023-04-09T02:46:12.156Z,8.83
2023-04-09T02:48:39.617Z,8.82
2023-04-09T02:51:07.130Z,8.82
2023-04-09T02:53:34.806Z,8.82
2023-04-09T02:56:02.288Z,8.80
2023-04-09T02:58:29.778Z,8.78
2023-04-09T03:00:57.201Z,8.77
2023-04-09T03:03:25.285Z,8.76
2023-04-09T03:05:52.875Z,8.76
2023-04-09T03:08:20.392Z,8.75
2023-04-09T03:10:48.017Z,8.72
2023-04-09T03:13:15.900Z,8.70
2023-04-09T03:15:43.497Z,8.68
2023-04-09T03:18:11.063Z,8.67
2023-04-09T03:20:40.889Z,8.65
2023-04-09T03:23:08.432Z,8.63
2023-04-09T03:25:36.013Z,8.62
2023-04-09T03:28:03.540Z,8.60
2023-04-09T03:30:31.101Z,8.56
2023-04-09T03:33:01.800Z,8.51
2023-04-09T03:35:29.385Z,8.47
2023-04-09T03:37:56.836Z,8.42
2023-04-09T03:40:24.336Z,8.40
2023-04-09T03:42:52.947Z,8.39
2023-04-09T03:45:20.812Z,8.37
2023-04-09T03:47:48.792Z,8.36
2023-04-09T03:50:16.582Z,8.34
2023-04-09T03:52:44.050Z,8.32
2023-04-09T03:55:11.587Z,8.30
2023-04-09T03:57:39.097Z,8.27
2023-04-09T04:00:08.135Z,8.26
2023-04-09T04:02:35.987Z,8.24
2023-04-09T04:05:03.922Z,8.20
2023-04-09T04:07:32.802Z,8.16
2023-04-09T04:10:01.611Z,8.14
2023-04-09T04:12:31.702Z,8.11
2023-04-09T04:14:59.351Z,8.09
2023-04-09T04:17:26.825Z,8.08
2023-04-09T04:19:54.286Z,8.07
2023-04-09T04:22:22.459Z,8.05
2023-04-09T04:24:51.339Z,8.04
2023-04-09T04:27:19.068Z,8.03
2023-04-09T04:29:46.614Z,8.02
2023-04-09T04:32:14.100Z,8.00
2023-04-09T04:34:41.541Z,7.99
2023-04-09T04:37:08.983Z,7.96
2023-04-09T04:39:36.421Z,7.95
2023-04-09T04:42:03.935Z,7.93
2023-04-09T04:44:31.469Z,7.89
2023-04-09T04:46:58.904Z,7.85
2023-04-09T04:49:26.369Z,7.81
2023-04-09T04:51:54.126Z,7.78
2023-04-09T04:54:21.677Z,7.74
2023-04-09T04:56:49.198Z,7.70
2023-04-09T04:59:16.719Z,7.68
2023-04-09T05:01:44.232Z,7.66
2023-04-09T05:04:11.806Z,7.66
2023-04-09T05:06:39.369Z,7.64
2023-04-09T05:09:06.807Z,7.65
2023-04-09T05:11:34.380Z,7.64
2023-04-09T05:14:01.871Z,7.65
2023-04-09T05:16:30.622Z,7.65
2023-04-09T05:18:59.560Z,7.66
2023-04-09T05:21:27.551Z,7.64
2023-04-09T05:23:55.401Z,7.63
2023-04-09T05:26:24.184Z,7.63
2023-04-09T05:28:52.738Z,7.63
2023-04-09T05:31:20.873Z,7.62
2023-04-09T05:33:48.365Z,7.60
2023-04-09T05:36:18.553Z,7.60
2023-04-09T05:38:46.915Z,7.58
2023-04-09T05:41:14.934Z,7.59
2023-04-09T05:43:43.970Z,7.61
2023-04-09T05:46:11.477Z,7.65
2023-04-09T05:48:40.399Z,7.65
2023-04-09T05:51:09.593Z,7.67
2023-04-09T05:53:37.090Z,7.70
2023-04-09T05:56:13.292Z,7.73
2023-04-09T05:58:40.846Z,7.73
2023-04-09T06:01:09.012Z,7.75
2023-04-09T06:03:36.582Z,7.76
2023-04-09T06:06:04.353Z,7.80
2023-04-09T06:08:31.786Z,7.81
2023-04-09T06:10:59.768Z,7.84
2023-04-09T06:13:27.369Z,7.86
2023-04-09T06:15:55.462Z,7.90
2023-04-09T06:18:22.997Z,7.93
2023-04-09T06:20:50.602Z,7.96
2023-04-09T06:23:18.194Z,8.00
2023-04-09T06:25:45.755Z,8.02
2023-04-09T06:28:13.215Z,8.06
2023-04-09T06:30:41.373Z,8.12
2023-04-09T06:33:08.943Z,8.21
2023-04-09T06:35:36.543Z,8.29
2023-04-09T06:38:04.050Z,8.36
2023-04-09T06:40:32.416Z,8.45
2023-04-09T06:42:59.908Z,8.52
2023-04-09T06:45:27.947Z,8.59
2023-04-09T06:47:56.049Z,8.67
2023-04-09T06:50:23.861Z,8.74
2023-04-09T06:52:52.574Z,8.83
2023-04-09T06:55:20.216Z,8.94
2023-04-09T06:57:47.721Z,9.05
2023-04-09T07:00:15.982Z,9.10
2023-04-09T07:02:43.811Z,9.15
2023-04-09T07:05:12.101Z,9.21
2023-04-09T07:07:39.899Z,9.28
2023-04-09T07:10:08.011Z,9.33
2023-04-09T07:12:35.627Z,9.36
2023-04-09T07:15:06.657Z,9.40
2023-04-09T07:17:35.243Z,9.47
2023-04-09T07:20:03.653Z,9.51
2023-04-09T07:22:31.291Z,9.55
2023-04-09T07:24:58.893Z,9.56
2023-04-09T07:27:27.842Z,9.58
2023-04-09T07:29:57.923Z,9.60
2023-04-09T07:32:28.381Z,9.68
2023-04-09T07:34:57.512Z,9.75
2023-04-09T07:37:27.091Z,9.76
2023-04-09T07:39:54.889Z,9.79
2023-04-09T07:42:24.451Z,9.83
2023-04-09T07:44:51.937Z,9.86
2023-04-09T07:47:19.749Z,9.89
2023-04-09T07:49:47.686Z,9.95
2023-04-09T07:52:15.314Z,10.01
2023-04-09T07:54:42.846Z,10.06
2023-04-09T07:57:10.521Z,10.13
2023-04-09T07:59:38.080Z,10.15
2023-04-09T08:02:05.914Z,10.20
2023-04-09T08:04:33.751Z,10.23
2023-04-09T08:07:01.355Z,10.27
2023-04-09T08:09:28.991Z,10.33
2023-04-09T08:11:57.170Z,10.37
2023-04-09T08:14:24.647Z,10.42
2023-04-09T08:16:52.493Z,10.50
2023-04-09T08:19:20.277Z,10.54
2023-04-09T08:21:49.454Z,10.54
2023-04-09T08:24:17.457Z,10.57
2023-04-09T08:26:45.160Z,10.59
2023-04-09T08:29:13.600Z,10.58
2023-04-09T08:31:42.369Z,10.58
2023-04-09T08:34:13.059Z,10.57
2023-04-09T08:36:40.851Z,10.58
2023-04-09T08:39:08.711Z,10.58
2023-04-09T08:41:45.524Z,10.59
2023-04-09T08:44:13.210Z,10.63
2023-04-09T08:46:41.939Z,10.64
2023-04-09T08:49:11.164Z,10.64
2023-04-09T08:51:39.264Z,10.68
2023-04-09T08:54:07.278Z,10.72
2023-04-09T08:56:35.602Z,10.80
2023-04-09T08:59:03.095Z,10.89
2023-04-09T09:01:32.478Z,10.98
2023-04-09T09:04:00.262Z,11.02
2023-04-09T09:06:33.179Z,11.05
2023-04-09T09:09:07.548Z,11.07
2023-04-09T09:11:45.893Z,11.08
2023-04-09T09:14:16.109Z,11.15
2023-04-09T09:17:08.323Z,11.18
2023-04-09T09:19:37.192Z,11.21
2023-04-09T09:22:08.260Z,11.24
2023-04-09T09:24:49.855Z,11.27
2023-04-09T09:27:36.780Z,11.33
2023-04-09T09:30:06.627Z,11.42
2023-04-09T09:32:34.355Z,11.49
2023-04-09T09:35:07.321Z,11.59
2023-04-09T09:37:34.884Z,11.74
2023-04-09T09:40:02.622Z,11.89
2023-04-09T09:42:30.355Z,12.03
2023-04-09T09:44:59.541Z,12.12
2023-04-09T09:47:31.635Z,12.25
2023-04-09T09:50:00.496Z,12.36
2023-04-09T09:52:28.023Z,12.44
2023-04-09T09:55:00.399Z,12.51
2023-04-09T09:57:31.024Z,12.55
2023-04-09T10:00:03.719Z,12.60
2023-04-09T10:02:56.535Z,12.66
2023-04-09T10:05:26.933Z,12.73
2023-04-09T10:07:57.909Z,12.77
2023-04-09T10:10:27.190Z,12.89
2023-04-09T10:12:56.214Z,13.02
2023-04-09T10:15:24.346Z,13.17
2023-04-09T10:17:51.878Z,13.33
2023-04-09T10:20:35.450Z,13.47
2023-04-09T10:23:09.575Z,13.63
2023-04-09T10:25:37.683Z,13.78
2023-04-09T10:28:16.475Z,13.92
2023-04-09T10:30:44.724Z,14.04
2023-04-09T10:33:26.556Z,14.16
2023-04-09T10:36:00.762Z,14.31
2023-04-09T10:38:47.137Z,14.46
2023-04-09T10:41:31.413Z,14.63
2023-04-09T10:43:58.894Z,14.78
2023-04-09T10:46:31.475Z,14.95
2023-04-09T10:49:17.203Z,15.18
2023-04-09T10:51:52.664Z,15.42
2023-04-09T10:54:38.706Z,15.59
2023-04-09T10:57:24.535Z,15.77
2023-04-09T10:59:54.573Z,15.93
2023-04-09T11:02:28.329Z,16.08
2023-04-09T11:04:59.311Z,16.21
2023-04-09T11:07:29.463Z,16.26
2023-04-09T11:09:56.963Z,16.29
2023-04-09T11:12:24.463Z,16.33
2023-04-09T11:14:52.547Z,16.36
2023-04-09T11:17:20.065Z,16.36
2023-04-09T11:19:47.646Z,16.25
2023-04-09T11:22:16.643Z,16.12
2023-04-09T11:24:46.672Z,16.04
2023-04-09T11:27:14.312Z,15.98
2023-04-09T11:29:42.270Z,15.96
2023-04-09T11:32:09.749Z,15.94
2023-04-09T11:34:37.751Z,15.89
2023-04-09T11:37:09.150Z,15.84
2023-04-09T11:39:37.448Z,15.70
2023-04-09T11:42:04.913Z,15.64
2023-04-09T11:44:32.611Z,15.57
2023-04-09T11:47:00.411Z,15.48
2023-04-09T11:49:28.307Z,15.40
2023-04-09T11:51:58.075Z,15.36
2023-04-09T11:54:25.596Z,15.30
2023-04-09T11:56:56.004Z,15.27
2023-04-09T11:59:23.609Z,15.25
2023-04-09T12:01:51.669Z,15.22
2023-04-09T12:04:22.841Z,15.19
2023-04-09T12:06:50.555Z,15.15
2023-04-09T12:09:18.017Z,15.11
2023-04-09T12:11:48.581Z,15.06
2023-04-09T12:14:17.882Z,15.06
2023-04-09T12:16:45.657Z,15.07
2023-04-09T12:19:13.975Z,15.07
2023-04-09T12:21:47.662Z,15.08
2023-04-09T12:24:17.123Z,15.10
2023-04-09T12:26:48.258Z,15.08
2023-04-09T12:29:17.726Z,14.95
2023-04-09T12:31:46.167Z,14.85
2023-04-09T12:34:14.150Z,14.80
2023-04-09T12:36:41.848Z,14.77
2023-04-09T12:39:10.480Z,14.81
2023-04-09T12:41:38.013Z,14.85
2023-04-09T12:44:07.845Z,14.89
2023-04-09T12:46:35.512Z,14.87
2023-04-09T12:49:04.206Z,14.86
2023-04-09T12:51:31.702Z,14.85
2023-04-09T12:53:59.272Z,14.83
2023-04-09T12:56:29.727Z,14.80
2023-04-09T12:58:57.558Z,14.77
2023-04-09T13:01:25.188Z,14.74
2023-04-09T13:03:53.360Z,14.68
2023-04-09T13:06:24.551Z,14.63
2023-04-09T13:08:52.055Z,14.57
2023-04-09T13:11:19.617Z,14.52
2023-04-09T13:13:47.132Z,14.47
2023-04-09T13:16:14.698Z,14.44
2023-04-09T13:18:42.225Z,14.45
2023-04-09T13:21:09.820Z,14.50
2023-04-09T13:23:37.422Z,14.58
2023-04-09T13:26:05.363Z,14.64
2023-04-09T13:28:33.087Z,14.75
2023-04-09T13:31:00.676Z,14.91
2023-04-09T13:33:28.532Z,15.09
2023-04-09T13:35:57.479Z,15.22
2023-04-09T13:38:25.469Z,15.31
2023-04-09T13:40:53.040Z,15.35
2023-04-09T13:43:21.097Z,15.40
2023-04-09T13:45:49.987Z,15.51
2023-04-09T13:48:17.672Z,15.64
2023-04-09T13:50:45.636Z,15.73
2023-04-09T13:53:13.503Z,15.86
2023-04-09T13:55:41.088Z,16.01
2023-04-09T13:58:09.818Z,16.15
2023-04-09T14:00:38.120Z,16.30
2023-04-09T14:03:05.801Z,16.63
2023-04-09T14:05:33.821Z,17.17
2023-04-09T14:08:02.647Z,17.60
2023-04-09T14:10:30.792Z,17.89
2023-04-09T14:12:58.224Z,18.10
2023-04-09T14:15:26.716Z,18.27
2023-04-09T14:17:54.256Z,18.53
2023-04-09T14:20:24.617Z,18.65
2023-04-09T14:22:52.213Z,18.64
2023-04-09T14:25:19.719Z,18.55
2023-04-09T14:27:47.375Z,18.41
2023-04-09T14:30:15.413Z,18.23
2023-04-09T14:32:43.160Z,18.02
2023-04-09T14:35:10.768Z,17.79
2023-04-09T14:37:40.886Z,17.56
2023-04-09T14:40:09.016Z,17.29
2023-04-09T14:42:36.845Z,17.05
2023-04-09T14:45:04.766Z,16.81
2023-04-09T14:47:32.343Z,16.54
2023-04-09T14:50:00.245Z,16.28
2023-04-09T14:52:34.076Z,16.07
2023-04-09T14:55:01.553Z,15.86
2023-04-09T14:57:29.061Z,15.70
2023-04-09T14:59:56.615Z,15.57
2023-04-09T15:02:24.321Z,15.44
2023-04-09T15:04:52.054Z,15.29
2023-04-09T15:07:19.706Z,15.16
2023-04-09T15:09:47.131Z,15.04
2023-04-09T15:12:14.656Z,14.93
2023-04-09T15:14:43.235Z,14.79
2023-04-09T15:17:11.107Z,14.67
2023-04-09T15:19:38.630Z,14.58
2023-04-09T15:22:06.395Z,14.50
2023-04-09T15:24:34.519Z,14.43
2023-04-09T15:27:02.043Z,14.37
2023-04-09T15:29:29.706Z,14.33
2023-04-09T15:31:57.306Z,14.31
2023-04-09T15:34:26.404Z,14.29
2023-04-09T15:36:54.006Z,14.28
2023-04-09T15:39:28.248Z,14.25
2023-04-09T15:41:57.634Z,14.22
2023-04-09T15:44:26.016Z,14.20
2023-04-09T15:46:54.089Z,14.19
2023-04-09T15:49:21.969Z,14.13
2023-04-09T15:51:49.563Z,14.10
2023-04-09T15:54:17.100Z,14.06
2023-04-09T15:56:44.636Z,14.02
2023-04-09T15:59:12.279Z,13.98
2023-04-09T16:01:39.817Z,13.94
2023-04-09T16:04:09.257Z,13.90
2023-04-09T16:06:39.232Z,13.86
2023-04-09T16:09:06.738Z,13.82
2023-04-09T16:11:36.368Z,13.77
2023-04-09T16:14:03.918Z,13.72
2023-04-09T16:16:31.729Z,13.67
2023-04-09T16:19:01.013Z,13.62
2023-04-09T16:21:29.468Z,13.58
2023-04-09T16:23:56.942Z,13.52
2023-04-09T16:26:24.488Z,13.45
2023-04-09T16:28:52.302Z,13.39
2023-04-09T16:31:20.232Z,13.36
2023-04-09T16:33:47.904Z,13.34
2023-04-09T16:36:15.417Z,13.31
2023-04-09T16:38:43.152Z,13.30
2023-04-09T16:41:10.739Z,13.28
2023-04-09T16:43:38.406Z,13.25
2023-04-09T16:46:08.645Z,13.22
2023-04-09T16:48:41.433Z,13.18
2023-04-09T16:51:09.158Z,13.13
2023-04-09T16:53:38.814Z,13.07
2023-04-09T16:56:07.776Z,13.01
2023-04-09T16:58:35.257Z,12.95
2023-04-09T17:01:02.844Z,12.88
2023-04-09T17:03:30.848Z,12.81
2023-04-09T17:05:58.385Z,12.73
2023-04-09T17:08:26.298Z,12.65
2023-04-09T17:11:01.852Z,12.55
2023-04-09T17:13:32.472Z,12.44
2023-04-09T17:15:59.934Z,12.32
2023-04-09T17:18:28.463Z,12.21
2023-04-09T17:20:56.431Z,12.09
2023-04-09T17:23:24.012Z,11.97
2023-04-09T17:25:51.573Z,11.86
2023-04-09T17:28:19.808Z,11.74
2023-04-09T17:30:47.641Z,11.63
2023-04-09T17:33:15.851Z,11.54
2023-04-09T17:35:43.405Z,11.44
2023-04-09T17:38:13.995Z,11.34
2023-04-09T17:40:43.350Z,11.25
2023-04-09T17:43:10.884Z,11.16
2023-04-09T17:45:38.626Z,11.06
2023-04-09T17:48:06.136Z,10.98
2023-04-09T17:50:37.008Z,10.91
2023-04-09T17:53:04.462Z,10.82
2023-04-09T17:55:32.393Z,10.75
2023-04-09T17:58:00.273Z,10.68
2023-04-09T18:00:28.031Z,10.62
2023-04-09T18:02:57.515Z,10.57
2023-04-09T18:05:25.982Z,10.51
2023-04-09T18:07:55.733Z,10.45
2023-04-09T18:10:23.408Z,10.40
2023-04-09T18:12:51.181Z,10.34
2023-04-09T18:15:19.202Z,10.31
2023-04-09T18:17:47.432Z,10.29
2023-04-09T18:20:15.811Z,10.27
2023-04-09T18:22:44.184Z,10.26
2023-04-09T18:25:11.805Z,10.23
2023-04-09T18:27:40.866Z,10.19
2023-04-09T18:30:09.217Z,10.14
2023-04-09T18:32:37.546Z,10.08
2023-04-09T18:35:05.527Z,10.03
2023-04-09T18:37:34.144Z,9.97
2023-04-09T18:40:02.757Z,9.91
2023-04-09T18:42:31.059Z,9.87
2023-04-09T18:44:58.561Z,9.83
2023-04-09T18:47:26.180Z,9.78
2023-04-09T18:49:53.931Z,9.76
2023-04-09T18:52:21.594Z,9.72
2023-04-09T18:54:49.084Z,9.69
2023-04-09T18:57:16.886Z,9.66
2023-04-09T18:59:49.754Z,9.63
2023-04-09T19:02:17.683Z,9.61
2023-04-09T19:04:45.714Z,9.60
2023-04-09T19:07:13.462Z,9.60
2023-04-09T19:09:42.373Z,9.60
2023-04-09T19:12:09.951Z,9.60
2023-04-09T19:14:37.634Z,9.60
2023-04-09T19:17:05.573Z,9.62
2023-04-09T19:19:33.113Z,9.63
2023-04-09T19:22:01.699Z,9.65
2023-04-09T19:24:29.386Z,9.66
2023-04-09T19:26:57.816Z,9.68
2023-04-09T19:29:25.542Z,9.70
2023-04-09T19:31:53.037Z,9.71
2023-04-09T19:34:20.807Z,9.73
2023-04-09T19:36:48.434Z,9.73
2023-04-09T19:39:15.892Z,9.74
2023-04-09T19:41:43.539Z,9.75
2023-04-09T19:44:11.306Z,9.75
2023-04-09T19:46:38.826Z,9.76
2023-04-09T19:49:07.321Z,9.76
2023-04-09T19:51:34.864Z,9.77
2023-04-09T19:54:02.530Z,9.77
2023-04-09T19:56:30.255Z,9.77
2023-04-09T19:58:58.011Z,9.76
2023-04-09T20:01:25.541Z,9.75
2023-04-09T20:03:53.363Z,9.73
2023-04-09T20:06:21.934Z,9.71
2023-04-09T20:08:49.498Z,9.70
2023-04-09T20:11:18.174Z,9.68
2023-04-09T20:13:47.994Z,9.66
2023-04-09T20:16:15.690Z,9.64
2023-04-09T20:18:43.272Z,9.61
2023-04-09T20:21:14.689Z,9.57
2023-04-09T20:23:45.074Z,9.52
2023-04-09T20:26:13.422Z,9.49
2023-04-09T20:28:41.525Z,9.46
2023-04-09T20:31:09.059Z,9.44
2023-04-09T20:33:37.013Z,9.41
2023-04-09T20:36:13.114Z,9.40
2023-04-09T20:38:40.828Z,9.38
2023-04-09T20:41:09.023Z,9.38
2023-04-09T20:43:38.298Z,9.37
2023-04-09T20:46:05.939Z,9.36
2023-04-09T20:48:33.897Z,9.35
2023-04-09T20:51:02.736Z,9.33
2023-04-09T20:53:30.227Z,9.31
2023-04-09T20:55:57.896Z,9.31
2023-04-09T20:58:25.839Z,9.31
2023-04-09T21:01:03.902Z,9.31
2023-04-09T21:03:31.616Z,9.30
2023-04-09T21:06:00.647Z,9.30
2023-04-09T21:08:29.406Z,9.29
2023-04-09T21:10:57.027Z,9.26
2023-04-09T21:13:24.653Z,9.24
2023-04-09T21:15:52.190Z,9.24
2023-04-09T21:18:19.749Z,9.23
2023-04-09T21:20:48.508Z,9.21
2023-04-09T21:23:16.419Z,9.18
2023-04-09T21:25:44.283Z,9.17
2023-04-09T21:28:11.868Z,9.15
2023-04-09T21:30:39.546Z,9.13
2023-04-09T21:33:09.105Z,9.10
2023-04-09T21:35:36.730Z,9.08
2023-04-09T21:38:04.417Z,9.06
2023-04-09T21:40:31.988Z,9.02
2023-04-09T21:43:01.710Z,8.99
2023-04-09T21:45:29.491Z,8.95
2023-04-09T21:47:57.332Z,8.90
2023-04-09T21:50:24.844Z,8.83
2023-04-09T21:52:52.316Z,8.78
2023-04-09T21:55:19.908Z,8.72
2023-04-09T21:57:47.578Z,8.66
2023-04-09T22:00:16.522Z,8.60
2023-04-09T22:02:44.151Z,8.53
2023-04-09T22:05:12.087Z,8.46
2023-04-09T22:07:42.525Z,8.40
2023-04-09T22:10:10.297Z,8.34
2023-04-09T22:12:37.889Z,8.27
2023-04-09T22:15:07.136Z,8.19
2023-04-09T22:17:34.644Z,8.11
2023-04-09T22:20:02.907Z,8.04
2023-04-09T22:22:30.604Z,7.97
2023-04-09T22:24:58.197Z,7.92
2023-04-09T22:27:26.047Z,7.86
2023-04-09T22:29:55.316Z,7.81
2023-04-09T22:32:22.888Z,7.76
2023-04-09T22:34:50.456Z,7.71
2023-04-09T22:37:19.118Z,7.66
2023-04-09T22:39:46.601Z,7.63
2023-04-09T22:42:14.170Z,7.59
2023-04-09T22:44:41.799Z,7.56
2023-04-09T22:47:09.495Z,7.54
2023-04-09T22:49:37.718Z,7.52
2023-04-09T22:52:05.751Z,7.49
2023-04-09T22:54:33.261Z,7.47
2023-04-09T22:57:01.812Z,7.45
2023-04-09T22:59:38.912Z,7.44
2023-04-09T23:02:07.427Z,7.43
2023-04-09T23:04:35.663Z,7.43
2023-04-09T23:07:03.629Z,7.42
2023-04-09T23:09:31.980Z,7.42
2023-04-09T23:11:59.466Z,7.41
2023-04-09T23:14:26.983Z,7.39
2023-04-09T23:16:54.520Z,7.36
2023-04-09T23:19:22.058Z,7.34
2023-04-09T23:21:49.557Z,7.32
2023-04-09T23:24:17.511Z,7.29
2023-04-09T23:26:45.992Z,7.26
2023-04-09T23:29:13.506Z,7.22
2023-04-09T23:31:40.987Z,7.19
2023-04-09T23:34:08.600Z,7.17
2023-04-09T23:36:36.067Z,7.12
2023-04-09T23:39:05.061Z,7.08
2023-04-09T23:41:32.613Z,7.05
2023-04-09T23:44:00.241Z,7.02
2023-04-09T23:46:27.796Z,6.98
2023-04-09T23:48:55.388Z,6.94
2023-04-09T23:51:22.930Z,6.90
2023-04-09T23:53:50.642Z,6.85
2023-04-09T23:56:18.314Z,6.82
2023-04-09T23:58:45.817Z,6.78
